Metalton, Arkansas
Current Conditions -  °F | °C
As of 2:53 PM on Thursday 20 Nov 2014 (Local Time) from KHRO Reporting Station
Clear Clear  
Wind Chill: 53°   Ceiling: Unl
Heat Index: 53°   Visibility: 10mi
Dew Point: 27°   Wind: 8mph
Humidity: 37%   Direction: 110°ESE
Pressure: 30.11"   Gusts: NA
Location:  36.3056°N, 93.5491°W
Report Text: KHRO 202053Z AUTO 11007KT 080V160 10SM CLR 12/M03 A3011 RMK AO2 SLP200 T01171028 56024
Loading
Personal Weather Stations






























Interactive Weather Map New forecast layout! Learn more

10-Day Weather Forecast

Advertisements
Track Severe Weather on mobile